sensor_id;sensor_type;location;lat;lon;timestamp;pressure;altitude;pressure_sealevel;temperature;humidity
21594;BME280;10959;51.328;7.322;2022-11-23T00:02:13;96895.03;;;9.36;83.20
21594;BME280;10959;51.328;7.322;2022-11-23T00:04:41;96889.38;;;9.28;83.03
21594;BME280;10959;51.328;7.322;2022-11-23T00:07:08;96896.81;;;9.24;83.31
21594;BME280;10959;51.328;7.322;2022-11-23T00:09:34;96891.84;;;9.31;83.25
21594;BME280;10959;51.328;7.322;2022-11-23T00:12:01;96893.09;;;9.38;82.41
21594;BME280;10959;51.328;7.322;2022-11-23T00:14:27;96903.34;;;9.44;82.39
21594;BME280;10959;51.328;7.322;2022-11-23T00:16:54;96903.84;;;9.38;82.67
21594;BME280;10959;51.328;7.322;2022-11-23T00:19:20;96902.09;;;9.37;82.23
21594;BME280;10959;51.328;7.322;2022-11-23T00:21:48;96905.56;;;9.39;82.06
21594;BME280;10959;51.328;7.322;2022-11-23T00:24:15;96899.72;;;9.45;82.03
21594;BME280;10959;51.328;7.322;2022-11-23T00:26:41;96902.41;;;9.45;82.08
21594;BME280;10959;51.328;7.322;2022-11-23T00:29:08;96905.31;;;9.42;82.55
21594;BME280;10959;51.328;7.322;2022-11-23T00:31:34;96908.97;;;9.41;82.29
21594;BME280;10959;51.328;7.322;2022-11-23T00:34:01;96916.06;;;9.42;82.55
21594;BME280;10959;51.328;7.322;2022-11-23T00:36:27;96914.09;;;9.44;82.13
21594;BME280;10959;51.328;7.322;2022-11-23T00:38:55;96918.78;;;9.54;81.95
21594;BME280;10959;51.328;7.322;2022-11-23T00:41:25;96916.84;;;9.56;81.89
21594;BME280;10959;51.328;7.322;2022-11-23T00:43:52;96915.16;;;9.55;81.91
21594;BME280;10959;51.328;7.322;2022-11-23T00:46:19;96921.97;;;9.59;81.38
21594;BME280;10959;51.328;7.322;2022-11-23T00:48:48;96919.81;;;9.64;81.59
21594;BME280;10959;51.328;7.322;2022-11-23T00:51:16;96924.22;;;9.65;81.26
21594;BME280;10959;51.328;7.322;2022-11-23T00:53:43;96928.63;;;9.66;81.16
21594;BME280;10959;51.328;7.322;2022-11-23T00:56:12;96932.50;;;9.62;81.28
21594;BME280;10959;51.328;7.322;2022-11-23T00:58:38;96931.03;;;9.58;81.65
21594;BME280;10959;51.328;7.322;2022-11-23T01:01:07;96931.88;;;9.58;81.37
21594;BME280;10959;51.328;7.322;2022-11-23T01:03:35;96928.81;;;9.63;81.49
21594;BME280;10959;51.328;7.322;2022-11-23T01:06:04;96933.19;;;9.52;81.57
21594;BME280;10959;51.328;7.322;2022-11-23T01:08:31;96932.97;;;9.56;81.90
21594;BME280;10959;51.328;7.322;2022-11-23T01:10:59;96935.31;;;9.60;81.32
21594;BME280;10959;51.328;7.322;2022-11-23T01:13:27;96929.53;;;9.54;81.76
21594;BME280;10959;51.328;7.322;2022-11-23T01:15:54;96941.78;;;9.58;81.51
21594;BME280;10959;51.328;7.322;2022-11-23T01:18:21;96940.91;;;9.57;81.71
21594;BME280;10959;51.328;7.322;2022-11-23T01:20:47;96938.09;;;9.59;81.88
21594;BME280;10959;51.328;7.322;2022-11-23T01:23:14;96940.06;;;9.57;81.68
21594;BME280;10959;51.328;7.322;2022-11-23T01:25:40;96934.44;;;9.60;81.69
21594;BME280;10959;51.328;7.322;2022-11-23T01:28:07;96939.56;;;9.63;81.70
21594;BME280;10959;51.328;7.322;2022-11-23T01:30:35;96941.78;;;9.58;81.78
21594;BME280;10959;51.328;7.322;2022-11-23T01:33:02;96944.00;;;9.64;81.69
21594;BME280;10959;51.328;7.322;2022-11-23T01:35:29;96949.25;;;9.65;81.67
21594;BME280;10959;51.328;7.322;2022-11-23T01:37:56;96955.69;;;9.63;81.76
21594;BME280;10959;51.328;7.322;2022-11-23T01:40:22;96948.16;;;9.68;81.44
21594;BME280;10959;51.328;7.322;2022-11-23T01:42:53;96950.84;;;9.68;81.62
21594;BME280;10959;51.328;7.322;2022-11-23T01:45:38;96954.41;;;9.44;81.40
21594;BME280;10959;51.328;7.322;2022-11-23T01:48:12;96955.94;;;9.60;81.72
21594;BME280;10959;51.328;7.322;2022-11-23T01:50:39;96948.63;;;9.62;82.04
21594;BME280;10959;51.328;7.322;2022-11-23T01:53:07;96961.06;;;9.63;81.91
21594;BME280;10959;51.328;7.322;2022-11-23T01:55:34;96962.56;;;9.67;82.22
21594;BME280;10959;51.328;7.322;2022-11-23T01:58:02;96955.88;;;9.73;81.88
21594;BME280;10959;51.328;7.322;2022-11-23T02:00:29;96958.44;;;9.74;81.23
21594;BME280;10959;51.328;7.322;2022-11-23T02:02:59;96957.94;;;9.69;81.51
21594;BME280;10959;51.328;7.322;2022-11-23T02:05:29;96955.69;;;9.63;81.36
21594;BME280;10959;51.328;7.322;2022-11-23T02:07:59;96964.03;;;9.71;81.34
21594;BME280;10959;51.328;7.322;2022-11-23T02:10:28;96963.56;;;9.77;81.30
21594;BME280;10959;51.328;7.322;2022-11-23T02:12:56;96963.34;;;9.80;81.49
21594;BME280;10959;51.328;7.322;2022-11-23T02:15:25;96959.69;;;9.81;81.43
21594;BME280;10959;51.328;7.322;2022-11-23T02:17:51;96960.56;;;9.82;81.45
21594;BME280;10959;51.328;7.322;2022-11-23T02:20:20;96961.41;;;9.82;80.95
21594;BME280;10959;51.328;7.322;2022-11-23T02:22:53;96960.16;;;9.75;80.65
21594;BME280;10959;51.328;7.322;2022-11-23T02:25:29;96965.78;;;9.72;81.07
21594;BME280;10959;51.328;7.322;2022-11-23T02:28:00;96974.31;;;9.77;81.35
21594;BME280;10959;51.328;7.322;2022-11-23T02:30:27;96977.00;;;9.77;81.25
21594;BME280;10959;51.328;7.322;2022-11-23T02:32:55;96977.75;;;9.79;81.24
21594;BME280;10959;51.328;7.322;2022-11-23T02:35:21;96978.25;;;9.84;81.30
21594;BME280;10959;51.328;7.322;2022-11-23T02:37:49;96979.00;;;9.86;81.01
21594;BME280;10959;51.328;7.322;2022-11-23T02:40:24;96975.69;;;9.83;80.56
21594;BME280;10959;51.328;7.322;2022-11-23T02:42:51;96974.25;;;9.90;80.63
21594;BME280;10959;51.328;7.322;2022-11-23T02:45:25;96977.28;;;9.85;80.24
21594;BME280;10959;51.328;7.322;2022-11-23T02:47:53;96980.75;;;9.88;81.12
21594;BME280;10959;51.328;7.322;2022-11-23T02:50:19;96988.53;;;9.79;81.07
21594;BME280;10959;51.328;7.322;2022-11-23T02:52:46;96985.06;;;9.77;81.53
21594;BME280;10959;51.328;7.322;2022-11-23T02:55:13;96987.75;;;9.77;81.85
21594;BME280;10959;51.328;7.322;2022-11-23T02:57:39;96983.16;;;9.79;81.46
21594;BME280;10959;51.328;7.322;2022-11-23T03:00:07;96986.56;;;9.81;81.66
21594;BME280;10959;51.328;7.322;2022-11-23T03:02:35;96988.22;;;9.71;81.66
21594;BME280;10959;51.328;7.322;2022-11-23T03:05:02;96989.47;;;9.78;82.03
21594;BME280;10959;51.328;7.322;2022-11-23T03:07:29;96988.03;;;9.85;81.70
21594;BME280;10959;51.328;7.322;2022-11-23T03:09:56;96991.50;;;9.88;81.72
21594;BME280;10959;51.328;7.322;2022-11-23T03:12:22;96988.81;;;9.88;81.73
21594;BME280;10959;51.328;7.322;2022-11-23T03:14:49;96988.28;;;9.82;82.16
21594;BME280;10959;51.328;7.322;2022-11-23T03:17:15;96983.31;;;9.89;81.70
21594;BME280;10959;51.328;7.322;2022-11-23T03:19:43;96985.22;;;9.87;81.96
21594;BME280;10959;51.328;7.322;2022-11-23T03:22:09;96995.38;;;9.83;82.48
21594;BME280;10959;51.328;7.322;2022-11-23T03:24:36;96990.97;;;9.82;82.43
21594;BME280;10959;51.328;7.322;2022-11-23T03:27:03;96991.50;;;9.88;82.51
21594;BME280;10959;51.328;7.322;2022-11-23T03:29:29;97003.72;;;9.92;81.91
21594;BME280;10959;51.328;7.322;2022-11-23T03:31:56;97003.72;;;9.92;82.21
21594;BME280;10959;51.328;7.322;2022-11-23T03:34:22;97003.72;;;9.92;82.01
21594;BME280;10959;51.328;7.322;2022-11-23T03:36:50;96992.72;;;9.95;82.23
21594;BME280;10959;51.328;7.322;2022-11-23T03:39:17;96994.78;;;9.91;82.25
21594;BME280;10959;51.328;7.322;2022-11-23T03:41:43;96995.19;;;9.98;81.80
21594;BME280;10959;51.328;7.322;2022-11-23T03:44:10;96992.50;;;9.98;81.80
21594;BME280;10959;51.328;7.322;2022-11-23T03:46:37;96988.59;;;10.02;81.71
21594;BME280;10959;51.328;7.322;2022-11-23T03:49:03;96991.41;;;10.00;81.61
21594;BME280;10959;51.328;7.322;2022-11-23T03:51:30;96997.13;;;9.96;82.02
21594;BME280;10959;51.328;7.322;2022-11-23T03:53:58;96996.63;;;9.91;82.33
21594;BME280;10959;51.328;7.322;2022-11-23T03:56:24;97000.16;;;9.91;82.52
21594;BME280;10959;51.328;7.322;2022-11-23T03:58:51;96989.53;;;9.90;82.36
21594;BME280;10959;51.328;7.322;2022-11-23T04:01:17;97006.84;;;9.85;82.90
21594;BME280;10959;51.328;7.322;2022-11-23T04:03:44;97000.63;;;9.85;82.83
21594;BME280;10959;51.328;7.322;2022-11-23T04:06:10;97002.44;;;9.84;82.50
21594;BME280;10959;51.328;7.322;2022-11-23T04:08:37;97007.63;;;9.88;82.98
21594;BME280;10959;51.328;7.322;2022-11-23T04:11:05;97005.66;;;9.90;82.58
21594;BME280;10959;51.328;7.322;2022-11-23T04:13:32;97002.44;;;9.84;82.93
21594;BME280;10959;51.328;7.322;2022-11-23T04:15:58;97002.44;;;9.84;82.64
21594;BME280;10959;51.328;7.322;2022-11-23T04:18:24;97003.31;;;9.85;82.83
21594;BME280;10959;51.328;7.322;2022-11-23T04:20:51;97011.50;;;9.83;83.13
21594;BME280;10959;51.328;7.322;2022-11-23T04:23:17;97003.44;;;9.83;82.85
21594;BME280;10959;51.328;7.322;2022-11-23T04:25:44;97005.13;;;9.84;83.45
21594;BME280;10959;51.328;7.322;2022-11-23T04:28:12;97010.31;;;9.88;82.40
21594;BME280;10959;51.328;7.322;2022-11-23T04:30:38;97009.31;;;9.89;82.75
21594;BME280;10959;51.328;7.322;2022-11-23T04:33:05;96998.78;;;9.85;82.96
21594;BME280;10959;51.328;7.322;2022-11-23T04:35:32;97011.28;;;9.86;82.50
21594;BME280;10959;51.328;7.322;2022-11-23T04:37:59;96993.41;;;9.85;82.61
21594;BME280;10959;51.328;7.322;2022-11-23T04:40:26;97007.63;;;9.88;82.75
21594;BME280;10959;51.328;7.322;2022-11-23T04:42:53;97004.16;;;9.85;82.90
21594;BME280;10959;51.328;7.322;2022-11-23T04:45:21;97003.94;;;9.89;82.97
21594;BME280;10959;51.328;7.322;2022-11-23T04:47:47;97003.09;;;9.88;82.87
21594;BME280;10959;51.328;7.322;2022-11-23T04:50:14;97009.78;;;9.82;82.76
21594;BME280;10959;51.328;7.322;2022-11-23T04:52:41;97004.16;;;9.85;83.06
21594;BME280;10959;51.328;7.322;2022-11-23T04:55:08;97014.69;;;9.89;83.10
21594;BME280;10959;51.328;7.322;2022-11-23T04:57:34;97007.63;;;9.88;82.73
21594;BME280;10959;51.328;7.322;2022-11-23T05:00:02;97009.09;;;9.92;82.93
21594;BME280;10959;51.328;7.322;2022-11-23T05:02:30;97005.66;;;9.90;82.63
21594;BME280;10959;51.328;7.322;2022-11-23T05:04:57;96998.78;;;9.85;82.63
21594;BME280;10959;51.328;7.322;2022-11-23T05:07:23;97000.53;;;9.86;82.98
21594;BME280;10959;51.328;7.322;2022-11-23T05:09:50;97003.31;;;9.85;82.93
21594;BME280;10959;51.328;7.322;2022-11-23T05:12:16;97003.56;;;9.82;82.77
21594;BME280;10959;51.328;7.322;2022-11-23T05:14:43;97000.47;;;9.75;83.23
21594;BME280;10959;51.328;7.322;2022-11-23T05:17:10;97000.19;;;9.67;83.38
21594;BME280;10959;51.328;7.322;2022-11-23T05:19:38;97003.41;;;9.72;82.82
21594;BME280;10959;51.328;7.322;2022-11-23T05:22:04;97001.00;;;9.80;82.61
21594;BME280;10959;51.328;7.322;2022-11-23T05:24:31;96996.81;;;9.76;82.95
21594;BME280;10959;51.328;7.322;2022-11-23T05:26:57;97002.63;;;9.70;83.15
21594;BME280;10959;51.328;7.322;2022-11-23T05:29:24;96997.06;;;9.73;83.21
21594;BME280;10959;51.328;7.322;2022-11-23T05:31:50;96998.25;;;9.69;83.40
21594;BME280;10959;51.328;7.322;2022-11-23T05:34:16;96997.00;;;9.62;83.69
21594;BME280;10959;51.328;7.322;2022-11-23T05:36:44;96999.56;;;9.63;83.52
21594;BME280;10959;51.328;7.322;2022-11-23T05:39:12;97007.28;;;9.68;83.37
21594;BME280;10959;51.328;7.322;2022-11-23T05:41:38;97008.19;;;9.56;83.19
21594;BME280;10959;51.328;7.322;2022-11-23T05:44:05;97009.25;;;9.66;82.87
21594;BME280;10959;51.328;7.322;2022-11-23T05:46:31;97014.56;;;9.55;83.51
21594;BME280;10959;51.328;7.322;2022-11-23T05:48:58;97018.28;;;9.65;83.38
21594;BME280;10959;51.328;7.322;2022-11-23T05:51:24;97024.25;;;9.68;82.67
21594;BME280;10959;51.328;7.322;2022-11-23T05:53:52;97020.19;;;9.63;83.27
21594;BME280;10959;51.328;7.322;2022-11-23T05:56:22;97016.44;;;9.65;83.44
21594;BME280;10959;51.328;7.322;2022-11-23T05:58:50;97022.94;;;9.74;82.80
21594;BME280;10959;51.328;7.322;2022-11-23T06:01:20;97017.56;;;9.74;82.68
21594;BME280;10959;51.328;7.322;2022-11-23T06:03:48;97024.66;;;9.75;82.85
21594;BME280;10959;51.328;7.322;2022-11-23T06:06:15;97021.25;;;9.73;82.71
21594;BME280;10959;51.328;7.322;2022-11-23T06:08:43;97028.31;;;9.74;82.30
21594;BME280;10959;51.328;7.322;2022-11-23T06:11:16;97023.88;;;9.62;82.54
21594;BME280;10959;51.328;7.322;2022-11-23T06:13:46;97026.03;;;9.57;83.15
21594;BME280;10959;51.328;7.322;2022-11-23T06:16:12;97026.22;;;9.66;83.42
21594;BME280;10959;51.328;7.322;2022-11-23T06:18:39;97027.19;;;9.65;83.03
21594;BME280;10959;51.328;7.322;2022-11-23T06:21:05;97026.94;;;9.68;83.31
21594;BME280;10959;51.328;7.322;2022-11-23T06:23:33;97027.06;;;9.67;83.49
21594;BME280;10959;51.328;7.322;2022-11-23T06:26:01;97035.00;;;9.68;83.32
21594;BME280;10959;51.328;7.322;2022-11-23T06:28:29;97021.69;;;9.67;83.34
21594;BME280;10959;51.328;7.322;2022-11-23T06:31:00;97024.84;;;9.61;83.37
21594;BME280;10959;51.328;7.322;2022-11-23T06:33:27;97021.91;;;9.64;83.64
21594;BME280;10959;51.328;7.322;2022-11-23T06:35:54;97021.91;;;9.64;83.53
21594;BME280;10959;51.328;7.322;2022-11-23T06:38:20;97023.88;;;9.62;83.37
21594;BME280;10959;51.328;7.322;2022-11-23T06:40:47;97029.88;;;9.65;83.58
21594;BME280;10959;51.328;7.322;2022-11-23T06:43:13;97028.06;;;9.66;83.90
21594;BME280;10959;51.328;7.322;2022-11-23T06:45:41;97020.19;;;9.63;83.15
21594;BME280;10959;51.328;7.322;2022-11-23T06:48:08;97025.38;;;9.66;83.65
21594;BME280;10959;51.328;7.322;2022-11-23T06:50:34;97031.59;;;9.66;83.58
21594;BME280;10959;51.328;7.322;2022-11-23T06:53:01;97033.06;;;9.71;83.54
21594;BME280;10959;51.328;7.322;2022-11-23T06:55:27;97040.50;;;9.67;83.55
21594;BME280;10959;51.328;7.322;2022-11-23T06:57:55;97043.19;;;9.67;83.07
21594;BME280;10959;51.328;7.322;2022-11-23T07:00:22;97043.41;;;9.64;83.33
21594;BME280;10959;51.328;7.322;2022-11-23T07:02:53;97038.75;;;9.55;82.86
21594;BME280;10959;51.328;7.322;2022-11-23T07:05:21;97040.66;;;9.52;83.12
21594;BME280;10959;51.328;7.322;2022-11-23T07:07:47;97046.69;;;9.56;83.43
21594;BME280;10959;51.328;7.322;2022-11-23T07:10:14;97045.56;;;9.59;82.88
21594;BME280;10959;51.328;7.322;2022-11-23T07:12:41;97054.16;;;9.64;82.72
21594;BME280;10959;51.328;7.322;2022-11-23T07:15:08;97051.41;;;9.52;82.78
21594;BME280;10959;51.328;7.322;2022-11-23T07:17:37;97049.31;;;9.45;82.90
21594;BME280;10959;51.328;7.322;2022-11-23T07:20:07;97050.91;;;9.47;82.80
21594;BME280;10959;51.328;7.322;2022-11-23T07:22:34;97050.16;;;9.45;83.21
21594;BME280;10959;51.328;7.322;2022-11-23T07:25:00;97045.75;;;9.44;83.06
21594;BME280;10959;51.328;7.322;2022-11-23T07:27:27;97053.38;;;9.50;82.89
21594;BME280;10959;51.328;7.322;2022-11-23T07:29:53;97052.56;;;9.61;82.79
21594;BME280;10959;51.328;7.322;2022-11-23T07:32:20;97054.50;;;9.59;82.22
21594;BME280;10959;51.328;7.322;2022-11-23T07:34:46;97051.81;;;9.59;82.17
21594;BME280;10959;51.328;7.322;2022-11-23T07:37:14;97063.00;;;9.66;81.81
21594;BME280;10959;51.328;7.322;2022-11-23T07:39:41;97062.69;;;9.58;82.25
21594;BME280;10959;51.328;7.322;2022-11-23T07:42:07;97065.38;;;9.58;81.85
21594;BME280;10959;51.328;7.322;2022-11-23T07:44:34;97067.50;;;9.65;82.10
21594;BME280;10959;51.328;7.322;2022-11-23T07:47:00;97075.91;;;9.61;81.79
21594;BME280;10959;51.328;7.322;2022-11-23T07:49:26;97081.03;;;9.64;81.76
21594;BME280;10959;51.328;7.322;2022-11-23T07:51:53;97080.56;;;9.70;81.50
21594;BME280;10959;51.328;7.322;2022-11-23T07:54:21;97073.94;;;9.63;81.30
21594;BME280;10959;51.328;7.322;2022-11-23T07:56:48;97080.63;;;9.57;81.49
21594;BME280;10959;51.328;7.322;2022-11-23T07:59:14;97081.81;;;9.66;81.33
21594;BME280;10959;51.328;7.322;2022-11-23T08:01:41;97078.69;;;9.59;80.86
21594;BME280;10959;51.328;7.322;2022-11-23T08:04:07;97077.22;;;9.55;80.62
21594;BME280;10959;51.328;7.322;2022-11-23T08:06:34;97082.38;;;9.45;80.89
21594;BME280;10959;51.328;7.322;2022-11-23T08:09:00;97082.47;;;9.57;80.71
21594;BME280;10959;51.328;7.322;2022-11-23T08:11:28;97081.03;;;9.64;80.04
21594;BME280;10959;51.328;7.322;2022-11-23T08:13:54;97088.56;;;9.59;80.48
21594;BME280;10959;51.328;7.322;2022-11-23T08:16:21;97082.81;;;9.52;80.15
21594;BME280;10959;51.328;7.322;2022-11-23T08:18:47;97087.50;;;9.61;80.11
21594;BME280;10959;51.328;7.322;2022-11-23T08:21:15;97084.91;;;9.60;80.23
21594;BME280;10959;51.328;7.322;2022-11-23T08:23:42;97084.91;;;9.60;80.21
21594;BME280;10959;51.328;7.322;2022-11-23T08:26:08;97086.66;;;9.61;79.57
21594;BME280;10959;51.328;7.322;2022-11-23T08:28:36;97089.69;;;9.56;79.80
21594;BME280;10959;51.328;7.322;2022-11-23T08:31:05;97097.16;;;9.64;79.58
21594;BME280;10959;51.328;7.322;2022-11-23T08:33:32;97097.81;;;9.67;79.79
21594;BME280;10959;51.328;7.322;2022-11-23T08:36:03;97091.56;;;9.67;79.20
21594;BME280;10959;51.328;7.322;2022-11-23T08:38:29;97089.16;;;9.75;79.40
21594;BME280;10959;51.328;7.322;2022-11-23T08:40:57;97097.00;;;9.78;78.72
21594;BME280;10959;51.328;7.322;2022-11-23T08:43:23;97107.63;;;9.80;79.22
21594;BME280;10959;51.328;7.322;2022-11-23T08:45:54;97099.72;;;9.65;79.00
21594;BME280;10959;51.328;7.322;2022-11-23T08:48:20;97104.03;;;9.68;78.89
21594;BME280;10959;51.328;7.322;2022-11-23T08:50:47;97104.84;;;9.81;78.86
21594;BME280;10959;51.328;7.322;2022-11-23T08:53:13;97100.72;;;9.89;78.44
21594;BME280;10959;51.328;7.322;2022-11-23T08:55:40;97098.56;;;9.94;77.92
21594;BME280;10959;51.328;7.322;2022-11-23T08:58:07;97103.69;;;9.97;77.83
21594;BME280;10959;51.328;7.322;2022-11-23T09:00:34;97103.69;;;9.97;77.86
21594;BME280;10959;51.328;7.322;2022-11-23T09:03:02;97102.50;;;10.01;77.99
21594;BME280;10959;51.328;7.322;2022-11-23T09:05:29;97097.66;;;10.06;77.08
21594;BME280;10959;51.328;7.322;2022-11-23T09:07:58;97094.59;;;10.11;77.30
21594;BME280;10959;51.328;7.322;2022-11-23T09:10:25;97097.53;;;10.08;77.20
21594;BME280;10959;51.328;7.322;2022-11-23T09:12:52;97086.66;;;10.09;77.09
21594;BME280;10959;51.328;7.322;2022-11-23T09:15:19;97095.22;;;10.14;77.04
21594;BME280;10959;51.328;7.322;2022-11-23T09:17:45;97101.84;;;10.21;76.60
21594;BME280;10959;51.328;7.322;2022-11-23T09:20:14;97095.69;;;10.08;76.49
21594;BME280;10959;51.328;7.322;2022-11-23T09:22:40;97084.75;;;10.23;77.22
21594;BME280;10959;51.328;7.322;2022-11-23T09:25:08;97085.03;;;10.31;76.64
21594;BME280;10959;51.328;7.322;2022-11-23T09:27:35;97082.75;;;10.37;76.42
21594;BME280;10959;51.328;7.322;2022-11-23T09:30:02;97088.03;;;10.39;76.56
21594;BME280;10959;51.328;7.322;2022-11-23T09:32:30;97086.69;;;10.45;76.11
21594;BME280;10959;51.328;7.322;2022-11-23T09:34:57;97092.13;;;10.32;75.31
21594;BME280;10959;51.328;7.322;2022-11-23T09:37:25;97091.59;;;10.27;75.13
21594;BME280;10959;51.328;7.322;2022-11-23T09:39:51;97097.50;;;10.32;76.32
21594;BME280;10959;51.328;7.322;2022-11-23T09:42:37;97097.19;;;10.12;75.58
21594;BME280;10959;51.328;7.322;2022-11-23T09:45:15;97104.03;;;10.16;75.89
21594;BME280;10959;51.328;7.322;2022-11-23T09:50:37;97110.78;;;10.46;75.67
21594;BME280;10959;51.328;7.322;2022-11-23T09:53:15;97120.19;;;10.41;75.35
21594;BME280;10959;51.328;7.322;2022-11-23T09:55:45;97123.66;;;10.54;75.00
21594;BME280;10959;51.328;7.322;2022-11-23T09:58:17;97115.69;;;10.52;74.73
21594;BME280;10959;51.328;7.322;2022-11-23T10:00:46;97120.56;;;10.47;74.55
21594;BME280;10959;51.328;7.322;2022-11-23T10:03:15;97124.53;;;10.54;74.57
21594;BME280;10959;51.328;7.322;2022-11-23T10:05:48;97135.75;;;10.48;73.68
21594;BME280;10959;51.328;7.322;2022-11-23T10:08:28;97123.97;;;10.38;73.36
21594;BME280;10959;51.328;7.322;2022-11-23T10:11:03;97135.16;;;10.32;73.61
21594;BME280;10959;51.328;7.322;2022-11-23T10:13:34;97130.88;;;10.53;73.21
21594;BME280;10959;51.328;7.322;2022-11-23T10:16:21;97131.13;;;10.50;73.69
21594;BME280;10959;51.328;7.322;2022-11-23T10:18:57;97134.16;;;10.57;72.45
21594;BME280;10959;51.328;7.322;2022-11-23T10:21:35;97124.53;;;10.54;73.63
21594;BME280;10959;51.328;7.322;2022-11-23T10:24:12;97122.09;;;10.74;73.37
21594;BME280;10959;51.328;7.322;2022-11-23T10:26:43;97126.44;;;10.99;72.64
21594;BME280;10959;51.328;7.322;2022-11-23T10:29:13;97122.28;;;10.95;71.88
21594;BME280;10959;51.328;7.322;2022-11-23T10:31:44;97124.69;;;10.87;70.62
21594;BME280;10959;51.328;7.322;2022-11-23T10:34:13;97122.66;;;11.02;71.33
21594;BME280;10959;51.328;7.322;2022-11-23T10:36:41;97132.94;;;11.08;70.77
21594;BME280;10959;51.328;7.322;2022-11-23T10:39:27;97123.50;;;11.02;71.13
21594;BME280;10959;51.328;7.322;2022-11-23T10:42:00;97129.50;;;11.29;70.77
21594;BME280;10959;51.328;7.322;2022-11-23T10:44:29;97134.19;;;11.38;70.61
21594;BME280;10959;51.328;7.322;2022-11-23T10:46:56;97119.50;;;11.42;70.20
21594;BME280;10959;51.328;7.322;2022-11-23T10:49:24;97133.22;;;11.50;69.75
21594;BME280;10959;51.328;7.322;2022-11-23T10:51:53;97118.25;;;11.57;69.20
21594;BME280;10959;51.328;7.322;2022-11-23T10:54:24;97117.25;;;11.47;68.38
21594;BME280;10959;51.328;7.322;2022-11-23T10:56:53;97121.16;;;11.54;67.86
21594;BME280;10959;51.328;7.322;2022-11-23T10:59:33;97119.75;;;11.50;67.60
21594;BME280;10959;51.328;7.322;2022-11-23T11:02:12;97116.66;;;11.66;67.15
21594;BME280;10959;51.328;7.322;2022-11-23T11:04:40;97102.88;;;11.81;66.08
21594;BME280;10959;51.328;7.322;2022-11-23T11:07:16;97104.00;;;11.78;65.76
21594;BME280;10959;51.328;7.322;2022-11-23T11:09:49;97095.88;;;11.89;65.79
21594;BME280;10959;51.328;7.322;2022-11-23T11:12:17;97098.34;;;11.81;64.96
21594;BME280;10959;51.328;7.322;2022-11-23T11:14:57;97101.00;;;11.92;65.78
21594;BME280;10959;51.328;7.322;2022-11-23T11:17:28;97093.94;;;12.24;66.28
21594;BME280;10959;51.328;7.322;2022-11-23T11:19:54;97093.50;;;12.40;66.18
21594;BME280;10959;51.328;7.322;2022-11-23T11:22:26;97089.16;;;12.27;65.13
21594;BME280;10959;51.328;7.322;2022-11-23T11:24:54;97090.16;;;12.26;64.84
21594;BME280;10959;51.328;7.322;2022-11-23T11:27:23;97093.25;;;12.43;65.34
21594;BME280;10959;51.328;7.322;2022-11-23T11:29:54;97084.81;;;12.57;65.50
21594;BME280;10959;51.328;7.322;2022-11-23T11:32:24;97083.72;;;12.60;65.80
21594;BME280;10959;51.328;7.322;2022-11-23T11:34:54;97077.47;;;12.59;65.38
21594;BME280;10959;51.328;7.322;2022-11-23T11:37:29;97078.56;;;12.57;64.62
21594;BME280;10959;51.328;7.322;2022-11-23T11:40:04;97077.78;;;12.45;64.56
21594;BME280;10959;51.328;7.322;2022-11-23T11:42:39;97067.97;;;12.44;64.09
21594;BME280;10959;51.328;7.322;2022-11-23T11:45:16;97062.56;;;12.44;65.22
21594;BME280;10959;51.328;7.322;2022-11-23T11:47:50;97063.69;;;12.62;65.12
21594;BME280;10959;51.328;7.322;2022-11-23T11:50:22;97049.91;;;12.66;63.28
21594;BME280;10959;51.328;7.322;2022-11-23T11:52:55;97048.75;;;12.58;63.89
21594;BME280;10959;51.328;7.322;2022-11-23T11:55:26;97058.22;;;12.74;64.39
21594;BME280;10959;51.328;7.322;2022-11-23T11:58:01;97040.19;;;12.53;63.03
21594;BME280;10959;51.328;7.322;2022-11-23T12:00:32;97030.66;;;12.49;62.64
21594;BME280;10959;51.328;7.322;2022-11-23T12:03:05;97035.56;;;12.44;62.27
21594;BME280;10959;51.328;7.322;2022-11-23T12:05:39;97036.81;;;12.40;62.99
21594;BME280;10959;51.328;7.322;2022-11-23T12:08:12;97035.69;;;12.21;61.77
21594;BME280;10959;51.328;7.322;2022-11-23T12:10:44;97042.47;;;12.16;62.15
21594;BME280;10959;51.328;7.322;2022-11-23T12:13:16;97054.63;;;12.10;62.48
21594;BME280;10959;51.328;7.322;2022-11-23T12:15:45;97035.97;;;12.18;62.73
21594;BME280;10959;51.328;7.322;2022-11-23T12:18:36;97039.22;;;12.01;62.52
21594;BME280;10959;51.328;7.322;2022-11-23T12:21:15;97043.38;;;12.05;62.37
21594;BME280;10959;51.328;7.322;2022-11-23T12:23:53;97044.63;;;12.01;62.42
21594;BME280;10959;51.328;7.322;2022-11-23T12:26:29;97042.78;;;11.90;62.06
21594;BME280;10959;51.328;7.322;2022-11-23T12:29:12;97043.88;;;11.87;62.01
21594;BME280;10959;51.328;7.322;2022-11-23T12:31:45;97040.69;;;12.05;62.44
21594;BME280;10959;51.328;7.322;2022-11-23T12:34:30;97049.81;;;11.81;61.38
21594;BME280;10959;51.328;7.322;2022-11-23T12:37:16;97034.94;;;11.87;62.60
21594;BME280;10959;51.328;7.322;2022-11-23T12:40:05;97040.50;;;11.74;62.66
21594;BME280;10959;51.328;7.322;2022-11-23T12:42:40;97042.91;;;12.00;63.27
21594;BME280;10959;51.328;7.322;2022-11-23T12:45:17;97036.06;;;11.96;63.38
21594;BME280;10959;51.328;7.322;2022-11-23T12:47:54;97042.91;;;12.00;63.01
21594;BME280;10959;51.328;7.322;2022-11-23T12:50:29;97056.88;;;12.05;62.84
21594;BME280;10959;51.328;7.322;2022-11-23T12:53:09;97049.75;;;11.92;62.50
21594;BME280;10959;51.328;7.322;2022-11-23T12:55:46;97045.34;;;11.91;62.79
21594;BME280;10959;51.328;7.322;2022-11-23T12:58:20;97037.06;;;11.95;62.66
21594;BME280;10959;51.328;7.322;2022-11-23T13:00:54;97038.25;;;11.90;62.70
21594;BME280;10959;51.328;7.322;2022-11-23T13:03:59;97038.59;;;11.65;63.52
21594;BME280;10959;51.328;7.322;2022-11-23T13:09:54;97015.75;;;11.69;63.82
21594;BME280;10959;51.328;7.322;2022-11-23T13:12:37;97029.25;;;11.69;63.50
21594;BME280;10959;51.328;7.322;2022-11-23T13:15:28;97028.53;;;11.55;62.82
21594;BME280;10959;51.328;7.322;2022-11-23T13:18:10;97020.69;;;11.64;63.00
21594;BME280;10959;51.328;7.322;2022-11-23T13:20:54;97019.34;;;11.58;62.48
21594;BME280;10959;51.328;7.322;2022-11-23T13:23:23;97016.81;;;11.45;62.89
21594;BME280;10959;51.328;7.322;2022-11-23T13:26:11;97001.91;;;11.30;61.98